Time;durP1;ratioP1;P1;durP2;ratioP2;P2;SDS_P1;SDS_P2;PMS_P1;PMS_P2;Temp;Humidity;BMP_temperature;BMP_pressure;BME280_temperature;BME280_humidity;BME280_pressure;Samples;Min_cycle;Max_cycle;Signal;HPM_P1;HPM_P2
2024/04/10 00:01:28;;;;;;;6.47;4.10;;;13.30;99.90;;;;;;5506590;26;20216;-60
2024/04/10 00:03:54;;;;;;;5.30;3.30;;;13.20;99.90;;;;;;5507485;26;20454;-60
2024/04/10 00:06:20;;;;;;;8.33;4.00;;;13.20;99.90;;;;;;5506296;26;20247;-60
2024/04/10 00:08:45;;;;;;;5.20;3.20;;;13.30;99.90;;;;;;5506970;26;20225;-60
2024/04/10 00:11:11;;;;;;;7.87;3.33;;;13.30;99.90;;;;;;5507263;26;20213;-60
2024/04/10 00:13:37;;;;;;;8.30;4.40;;;13.30;99.90;;;;;;5506416;26;20232;-60
2024/04/10 00:16:04;;;;;;;7.87;3.57;;;13.30;99.90;;;;;;5474583;26;20272;-60
2024/04/10 00:18:31;;;;;;;5.07;3.40;;;13.30;99.90;;;;;;5443608;26;20288;-60
2024/04/10 00:20:57;;;;;;;6.60;3.10;;;13.30;99.90;;;;;;5506778;26;20450;-60
2024/04/10 00:23:23;;;;;;;5.37;2.87;;;13.30;99.90;;;;;;5473772;26;20478;-60
2024/04/10 00:25:53;;;;;;;6.50;3.50;;;13.30;99.90;;;;;;5507061;26;20232;-60
2024/04/10 00:28:19;;;;;;;7.90;3.80;;;13.20;99.90;;;;;;5505983;26;20929;-60
2024/04/10 00:30:44;;;;;;;7.67;3.17;;;13.20;99.90;;;;;;5494307;26;20443;-60
2024/04/10 00:33:10;;;;;;;7.47;3.47;;;13.20;99.90;;;;;;5490870;26;20276;-60
2024/04/10 00:35:36;;;;;;;5.20;3.40;;;13.20;99.90;;;;;;5490306;26;20306;-60
2024/04/10 00:38:01;;;;;;;7.20;3.10;;;13.20;99.90;;;;;;5458538;26;20275;-60
2024/04/10 00:40:27;;;;;;;10.10;3.13;;;13.20;99.90;;;;;;5490325;26;20217;-60
2024/04/10 00:42:53;;;;;;;6.10;3.83;;;13.20;99.90;;;;;;5490794;26;20224;-60
2024/04/10 00:45:18;;;;;;;13.40;5.23;;;13.20;99.90;;;;;;5489954;26;20325;-60
2024/04/10 00:47:44;;;;;;;5.67;3.47;;;13.20;99.90;;;;;;5490970;26;20217;-60
2024/04/10 00:50:10;;;;;;;6.33;3.30;;;13.10;99.90;;;;;;5490670;26;20662;-60
2024/04/10 00:52:36;;;;;;;5.80;2.70;;;13.10;99.90;;;;;;5489703;26;20316;-60
2024/04/10 00:55:04;;;;;;;6.80;3.20;;;13.10;99.90;;;;;;5490541;26;20615;-62
2024/04/10 00:57:30;;;;;;;6.20;4.13;;;13.10;99.90;;;;;;5490237;26;20945;-61
2024/04/10 00:59:55;;;;;;;9.40;3.70;;;13.20;99.90;;;;;;5490416;26;20557;-60
2024/04/10 01:02:21;;;;;;;9.20;3.20;;;13.10;99.90;;;;;;5490057;26;20218;-60
2024/04/10 01:04:49;;;;;;;7.10;3.70;;;13.20;99.90;;;;;;5490507;26;20262;-60
2024/04/10 01:07:14;;;;;;;5.87;2.90;;;13.10;99.90;;;;;;5490256;26;20547;-63
2024/04/10 01:09:40;;;;;;;6.20;3.17;;;13.20;99.90;;;;;;5490107;26;20450;-63
2024/04/10 01:12:06;;;;;;;7.00;3.30;;;13.10;99.90;;;;;;5490404;26;20238;-63
2024/04/10 01:14:32;;;;;;;7.20;3.00;;;13.10;99.90;;;;;;5489338;26;20225;-61
2024/04/10 01:16:58;;;;;;;6.53;2.90;;;13.00;99.90;;;;;;5490589;26;21005;-60
2024/04/10 01:19:23;;;;;;;7.40;2.97;;;13.00;99.90;;;;;;5457499;26;20243;-60
2024/04/10 01:21:49;;;;;;;3.60;2.70;;;12.90;99.90;;;;;;5490301;26;20647;-60
2024/04/10 01:24:15;;;;;;;7.57;3.37;;;12.90;99.90;;;;;;5490547;26;20220;-60
2024/04/10 01:26:41;;;;;;;7.57;3.63;;;12.90;99.90;;;;;;5488953;26;20276;-60
2024/04/10 01:29:06;;;;;;;9.70;3.67;;;12.90;99.90;;;;;;5491204;26;20279;-60
2024/04/10 01:31:32;;;;;;;7.33;3.40;;;12.90;99.90;;;;;;5489248;26;20244;-60
2024/04/10 01:33:58;;;;;;;7.63;3.33;;;12.90;99.90;;;;;;5490706;26;20229;-60
2024/04/10 01:36:23;;;;;;;5.33;3.33;;;12.80;99.90;;;;;;5489216;26;20217;-60
2024/04/10 01:38:50;;;;;;;5.47;3.27;;;12.80;99.90;;;;;;5490319;26;20234;-60
2024/04/10 01:41:15;;;;;;;9.50;3.50;;;12.80;99.90;;;;;;5488795;26;20249;-60
2024/04/10 01:43:42;;;;;;;4.20;3.20;;;12.80;99.90;;;;;;5488969;26;20916;-60
2024/04/10 01:46:07;;;;;;;8.67;3.80;;;12.80;99.90;;;;;;5489766;26;20320;-60
2024/04/10 01:48:33;;;;;;;6.37;3.13;;;12.80;99.90;;;;;;5489092;26;20450;-60
2024/04/10 01:50:59;;;;;;;11.87;3.77;;;12.70;99.90;;;;;;5489566;26;20243;-60
2024/04/10 01:53:25;;;;;;;8.10;3.33;;;12.70;99.90;;;;;;5489200;26;20224;-60
2024/04/10 01:55:51;;;;;;;6.87;3.53;;;12.70;99.90;;;;;;5489693;26;20441;-60
2024/04/10 01:58:17;;;;;;;6.90;3.50;;;12.70;99.90;;;;;;5489603;26;20232;-60
2024/04/10 02:00:43;;;;;;;6.30;2.97;;;12.70;99.90;;;;;;5457103;26;20501;-60
2024/04/10 02:03:08;;;;;;;5.23;2.97;;;12.60;99.90;;;;;;5489315;26;20292;-60
2024/04/10 02:05:34;;;;;;;6.43;2.73;;;12.60;99.90;;;;;;5456943;26;20734;-60
2024/04/10 02:08:00;;;;;;;5.00;3.50;;;12.60;99.90;;;;;;5489960;26;20265;-60
2024/04/10 02:10:26;;;;;;;5.67;3.20;;;12.60;99.90;;;;;;5488648;26;20233;-60
2024/04/10 02:12:51;;;;;;;7.37;3.60;;;12.70;99.90;;;;;;5489472;26;20730;-60
2024/04/10 02:15:17;;;;;;;5.50;4.03;;;12.70;99.90;;;;;;5489627;26;20237;-60
2024/04/10 02:17:43;;;;;;;7.70;3.87;;;12.60;99.90;;;;;;5485955;26;20963;-59
2024/04/10 02:20:10;;;;;;;9.30;3.43;;;12.60;99.90;;;;;;5453658;26;20487;-60
2024/04/10 02:22:35;;;;;;;6.93;4.30;;;12.50;99.90;;;;;;5452351;26;20551;-60
2024/04/10 02:25:01;;;;;;;6.37;3.70;;;12.50;99.90;;;;;;5452445;26;20560;-60
2024/04/10 02:27:27;;;;;;;4.87;3.30;;;12.50;99.90;;;;;;5452608;26;20585;-60
2024/04/10 02:29:52;;;;;;;7.17;3.97;;;12.50;99.90;;;;;;5452888;26;20237;-60
2024/04/10 02:32:18;;;;;;;7.70;3.50;;;12.50;99.90;;;;;;5452755;26;20271;-60
2024/04/10 02:34:47;;;;;;;7.73;3.53;;;12.50;99.90;;;;;;5452331;26;20446;-60
2024/04/10 02:37:12;;;;;;;6.00;3.77;;;12.40;99.90;;;;;;5452607;26;20280;-60
2024/04/10 02:39:38;;;;;;;6.27;3.53;;;12.40;99.90;;;;;;5451958;26;20522;-60
2024/04/10 02:42:04;;;;;;;7.37;3.30;;;12.40;99.90;;;;;;5452751;26;20277;-60
2024/04/10 02:44:30;;;;;;;6.30;3.90;;;12.40;99.90;;;;;;5451934;26;20279;-60
2024/04/10 02:46:56;;;;;;;6.43;3.30;;;12.40;99.90;;;;;;5420827;26;20494;-61
2024/04/10 02:49:22;;;;;;;6.70;4.27;;;12.30;99.90;;;;;;5452801;26;20256;-60
2024/04/10 02:51:47;;;;;;;8.20;3.80;;;12.30;99.90;;;;;;5451843;26;20450;-60
2024/04/10 02:54:13;;;;;;;6.57;3.70;;;12.30;99.90;;;;;;5420054;26;20249;-60
2024/04/10 02:56:39;;;;;;;8.17;3.40;;;12.30;99.90;;;;;;5451939;26;20225;-60
2024/04/10 02:59:05;;;;;;;7.77;4.03;;;12.30;99.90;;;;;;5452301;26;20272;-60
2024/04/10 03:01:30;;;;;;;7.93;4.03;;;12.20;99.90;;;;;;5419906;26;20448;-60
2024/04/10 03:03:56;;;;;;;6.93;3.17;;;12.30;99.90;;;;;;5452837;26;20316;-60
2024/04/10 03:06:22;;;;;;;5.73;3.40;;;12.30;99.90;;;;;;5452328;26;20766;-60
2024/04/10 03:08:50;;;;;;;9.70;3.60;;;12.30;99.90;;;;;;5451711;26;20312;-60
2024/04/10 03:11:18;;;;;;;4.37;3.77;;;12.30;99.90;;;;;;5451974;26;20230;-60
2024/04/10 03:13:43;;;;;;;4.20;3.07;;;12.30;99.90;;;;;;5451431;26;20493;-60
2024/04/10 03:16:10;;;;;;;6.70;4.40;;;12.30;99.90;;;;;;5452273;26;20456;-60
2024/04/10 03:18:36;;;;;;;8.33;3.90;;;12.30;99.90;;;;;;5451053;26;20280;-60
2024/04/10 03:21:02;;;;;;;8.40;3.67;;;12.30;99.90;;;;;;5451896;26;21003;-60
2024/04/10 03:23:28;;;;;;;7.97;3.90;;;12.40;99.90;;;;;;5451291;26;20549;-60
2024/04/10 03:26:09;;;;;;;8.23;3.97;;;12.40;99.90;;;;;;5452643;26;20485;-60
2024/04/10 03:28:35;;;;;;;7.50;3.60;;;12.30;99.90;;;;;;5451134;26;20748;-60
2024/04/10 03:31:06;;;;;;;7.60;4.00;;;12.30;99.90;;;;;;5451842;26;20439;-60
2024/04/10 03:33:32;;;;;;;5.50;4.20;;;12.30;99.90;;;;;;5451406;26;20474;-60
2024/04/10 03:35:58;;;;;;;8.77;3.50;;;12.30;99.90;;;;;;5451631;26;20506;-60
2024/04/10 03:38:24;;;;;;;7.07;3.30;;;12.30;99.90;;;;;;5451506;26;20450;-60
2024/04/10 03:40:49;;;;;;;6.73;3.47;;;12.20;99.90;;;;;;5451172;26;20332;-60
2024/04/10 03:43:15;;;;;;;8.37;3.43;;;12.30;99.90;;;;;;5419984;26;20728;-60
2024/04/10 03:45:41;;;;;;;6.47;3.53;;;12.30;99.90;;;;;;5450623;26;20256;-60
2024/04/10 03:48:08;;;;;;;10.73;4.70;;;12.30;99.90;;;;;;5451843;26;20272;-60
2024/04/10 03:50:33;;;;;;;9.60;3.60;;;12.20;99.90;;;;;;5450913;26;20435;-60
2024/04/10 03:52:59;;;;;;;8.60;3.93;;;12.30;99.90;;;;;;5451917;26;20867;-60
2024/04/10 03:55:25;;;;;;;7.30;3.60;;;12.20;99.90;;;;;;5419749;26;20237;-60
2024/04/10 03:57:50;;;;;;;4.50;3.10;;;12.20;99.90;;;;;;5450503;26;20796;-60
2024/04/10 04:00:16;;;;;;;9.37;3.20;;;12.20;99.90;;;;;;5451741;26;20233;-63
2024/04/10 04:02:44;;;;;;;10.60;3.83;;;12.20;99.90;;;;;;5450456;26;20230;-62
2024/04/10 04:05:10;;;;;;;6.80;4.50;;;12.20;99.90;;;;;;5452113;26;21011;-63
2024/04/10 04:07:36;;;;;;;8.60;4.70;;;12.20;99.90;;;;;;5453959;26;20430;-62
2024/04/10 04:10:02;;;;;;;5.40;3.80;;;12.20;99.90;;;;;;5454295;26;20528;-63
2024/04/10 04:12:27;;;;;;;5.97;2.93;;;12.30;99.90;;;;;;5454223;26;20236;-63
2024/04/10 04:14:53;;;;;;;6.53;3.43;;;12.30;99.90;;;;;;5453823;26;20511;-63
2024/04/10 04:17:19;;;;;;;7.77;5.00;;;12.30;99.90;;;;;;5454963;26;20320;-63
2024/04/10 04:19:45;;;;;;;7.23;3.90;;;12.40;99.90;;;;;;5453571;26;20244;-62
2024/04/10 04:22:11;;;;;;;13.63;4.73;;;12.30;99.90;;;;;;5454650;26;20228;-63
2024/04/10 04:24:37;;;;;;;4.33;3.40;;;12.40;99.90;;;;;;5454180;26;20455;-62
2024/04/10 04:27:05;;;;;;;10.23;4.60;;;12.40;99.90;;;;;;5454569;26;20281;-63
2024/04/10 04:29:33;;;;;;;6.80;4.07;;;12.40;99.90;;;;;;5454433;26;20732;-63
2024/04/10 04:31:59;;;;;;;7.90;3.70;;;12.30;99.90;;;;;;5454733;26;20536;-63
2024/04/10 04:34:25;;;;;;;6.33;4.33;;;12.40;99.90;;;;;;5454647;26;20803;-63
2024/04/10 04:36:51;;;;;;;7.53;4.27;;;12.40;99.90;;;;;;5453650;26;20286;-63
2024/04/10 04:39:16;;;;;;;7.97;4.30;;;12.40;99.90;;;;;;5454254;26;20561;-63
2024/04/10 04:41:42;;;;;;;5.33;4.00;;;12.50;99.90;;;;;;5454119;26;20656;-63
2024/04/10 04:44:08;;;;;;;6.07;3.80;;;12.50;99.90;;;;;;5454273;26;20279;-63
2024/04/10 04:46:34;;;;;;;8.00;4.60;;;12.50;99.90;;;;;;5422117;26;20704;-62
2024/04/10 04:49:00;;;;;;;7.80;4.33;;;12.50;99.90;;;;;;5454280;26;20466;-63
2024/04/10 04:51:27;;;;;;;6.40;4.03;;;12.40;99.90;;;;;;5454171;26;20501;-62
2024/04/10 04:53:53;;;;;;;10.63;4.10;;;12.50;99.90;;;;;;5453501;26;20647;-62
2024/04/10 04:56:18;;;;;;;13.20;4.33;;;12.50;99.90;;;;;;5454497;26;20498;-63
2024/04/10 04:58:44;;;;;;;6.57;4.07;;;12.50;99.90;;;;;;5452789;26;20233;-62
2024/04/10 05:01:10;;;;;;;7.57;4.50;;;12.50;99.90;;;;;;5453372;26;20233;-63
2024/04/10 05:06:20;;;;;;;8.23;4.23;;;12.50;99.90;;;;;;5454206;26;20774;-63
2024/04/10 05:08:47;;;;;;;9.20;6.80;;;12.60;99.90;;;;;;5453188;26;20463;-62
2024/04/10 05:11:14;;;;;;;10.37;5.17;;;12.50;99.90;;;;;;5454198;26;20236;-63
2024/04/10 05:13:40;;;;;;;8.67;4.83;;;12.60;99.90;;;;;;5452729;26;20593;-62
2024/04/10 05:16:06;;;;;;;6.40;4.67;;;12.60;99.90;;;;;;5453246;26;20446;-64
2024/04/10 05:18:32;;;;;;;7.00;5.93;;;12.60;99.90;;;;;;5453162;26;20246;-63
2024/04/10 05:20:58;;;;;;;13.07;5.70;;;12.50;99.90;;;;;;5453197;26;20845;-63
2024/04/10 05:23:23;;;;;;;10.50;4.77;;;12.50;99.90;;;;;;5421749;26;20447;-62
2024/04/10 05:25:52;;;;;;;7.67;4.10;;;12.60;99.90;;;;;;5452796;26;20598;-64
2024/04/10 05:28:18;;;;;;;10.60;5.07;;;12.60;99.90;;;;;;5453603;26;20241;-63
2024/04/10 05:30:43;;;;;;;15.47;5.70;;;12.60;99.90;;;;;;5452786;26;20443;-62
2024/04/10 05:33:09;;;;;;;6.73;4.57;;;12.60;99.90;;;;;;5454039;26;20678;-63
2024/04/10 05:35:35;;;;;;;8.63;4.97;;;12.70;99.90;;;;;;5453242;26;20229;-61
2024/04/10 05:38:01;;;;;;;8.87;5.30;;;12.60;99.90;;;;;;5453768;26;20225;-62
2024/04/10 05:40:27;;;;;;;7.53;4.80;;;12.70;99.90;;;;;;5452887;26;21053;-63
2024/04/10 05:42:52;;;;;;;8.67;4.87;;;12.60;99.90;;;;;;5451721;26;20273;-61
2024/04/10 05:45:18;;;;;;;12.63;4.90;;;12.70;99.90;;;;;;5453260;26;20234;-61
2024/04/10 05:47:53;;;;;;;7.70;4.33;;;12.70;99.90;;;;;;5391558;26;20230;-64
2024/04/10 05:50:19;;;;;;;9.77;4.30;;;12.70;99.90;;;;;;5453412;26;20439;-61
2024/04/10 05:52:45;;;;;;;5.50;4.50;;;12.60;99.90;;;;;;5452640;26;21036;-62
2024/04/10 05:55:11;;;;;;;10.30;5.63;;;12.70;99.90;;;;;;5453359;26;20491;-61
2024/04/10 05:57:37;;;;;;;5.30;4.80;;;12.70;99.90;;;;;;5421663;26;20225;-65
2024/04/10 06:00:03;;;;;;;8.80;3.97;;;12.70;99.90;;;;;;5453026;26;20462;-62
2024/04/10 06:02:30;;;;;;;7.63;4.93;;;12.60;99.90;;;;;;5422161;26;20435;-61
2024/04/10 06:05:00;;;;;;;10.63;4.63;;;12.60;99.90;;;;;;5452783;26;20507;-61
2024/04/10 06:07:25;;;;;;;8.93;4.87;;;12.70;99.90;;;;;;5453387;26;20451;-61
2024/04/10 06:09:55;;;;;;;9.17;4.50;;;12.60;99.90;;;;;;5451974;26;20500;-62
2024/04/10 06:12:22;;;;;;;8.60;4.67;;;12.60;99.90;;;;;;5453697;26;20491;-61
2024/04/10 06:14:54;;;;;;;7.07;4.07;;;12.60;99.90;;;;;;5452656;26;20518;-61
2024/04/10 06:17:21;;;;;;;9.93;6.10;;;12.60;99.90;;;;;;5452494;26;20490;-61
2024/04/10 06:19:49;;;;;;;7.97;4.43;;;12.70;99.90;;;;;;5460127;26;20546;-62
2024/04/10 06:22:15;;;;;;;6.97;4.83;;;12.70;99.90;;;;;;5423884;26;20500;-61
2024/04/10 06:24:45;;;;;;;7.77;5.00;;;12.70;99.90;;;;;;5486145;26;20976;-61
2024/04/10 06:27:13;;;;;;;10.87;5.13;;;12.60;99.90;;;;;;5483947;26;20434;-61
2024/04/10 06:29:43;;;;;;;5.53;4.50;;;12.70;99.90;;;;;;5466969;26;21065;-65
2024/04/10 06:32:09;;;;;;;7.80;5.00;;;12.60;99.90;;;;;;5461233;26;20507;-60
2024/04/10 06:34:34;;;;;;;10.73;4.87;;;12.70;99.90;;;;;;5453297;26;20448;-60
2024/04/10 06:37:01;;;;;;;7.87;4.27;;;12.70;99.90;;;;;;5420534;26;20446;-60
2024/04/10 06:39:27;;;;;;;9.33;4.90;;;12.70;99.90;;;;;;5458919;26;20227;-62
2024/04/10 06:41:53;;;;;;;5.50;4.90;;;12.70;99.90;;;;;;5468981;26;20846;-60
2024/04/10 06:44:19;;;;;;;6.13;4.70;;;12.70;99.90;;;;;;5450385;26;20461;-61
2024/04/10 06:46:44;;;;;;;5.57;4.50;;;12.60;99.90;;;;;;5451760;26;20345;-60
2024/04/10 06:49:11;;;;;;;12.53;4.87;;;12.60;99.90;;;;;;5421081;26;20238;-60
2024/04/10 06:51:37;;;;;;;8.87;5.00;;;12.60;99.90;;;;;;5476673;26;20735;-62
2024/04/10 06:54:03;;;;;;;7.13;5.20;;;12.60;99.90;;;;;;5488495;26;20486;-61
2024/04/10 06:56:29;;;;;;;6.00;5.30;;;12.60;99.90;;;;;;5489033;26;20260;-62
2024/04/10 06:58:55;;;;;;;8.97;5.57;;;12.70;99.90;;;;;;5484596;26;20532;-62
2024/04/10 07:01:21;;;;;;;11.10;5.43;;;12.70;99.90;;;;;;5488907;26;20289;-62
2024/04/10 07:03:47;;;;;;;6.10;5.40;;;12.70;99.90;;;;;;5488419;26;20253;-62
2024/04/10 07:06:15;;;;;;;11.10;5.57;;;12.70;99.90;;;;;;5489066;26;20228;-62
2024/04/10 07:08:46;;;;;;;9.30;4.60;;;12.70;99.90;;;;;;5475037;26;20517;-65
2024/04/10 07:11:21;;;;;;;10.27;4.87;;;12.80;99.90;;;;;;5487684;26;20451;-63
2024/04/10 07:13:51;;;;;;;7.80;4.10;;;12.80;99.90;;;;;;5423455;26;20783;-62
2024/04/10 07:16:19;;;;;;;12.10;5.40;;;12.80;99.90;;;;;;5385234;26;20436;-62
2024/04/10 07:18:45;;;;;;;11.60;5.83;;;12.80;99.90;;;;;;5396788;26;20849;-62
2024/04/10 07:21:12;;;;;;;7.70;5.10;;;12.80;99.90;;;;;;5452502;26;20444;-62
2024/04/10 07:23:42;;;;;;;8.03;5.17;;;12.80;99.90;;;;;;5452656;26;20874;-60
2024/04/10 07:26:15;;;;;;;13.03;6.27;;;12.90;99.90;;;;;;5452595;26;20424;-61
2024/04/10 07:28:46;;;;;;;9.07;5.20;;;12.90;99.90;;;;;;5451682;26;20448;-60
2024/04/10 07:31:13;;;;;;;7.70;4.50;;;12.90;99.90;;;;;;5420472;26;20885;-61
2024/04/10 07:33:39;;;;;;;9.43;5.00;;;12.90;99.90;;;;;;5419705;26;20865;-61
2024/04/10 07:36:12;;;;;;;8.63;5.13;;;13.00;99.90;;;;;;5451004;26;20440;-61
2024/04/10 07:38:39;;;;;;;10.50;4.90;;;13.10;99.90;;;;;;5452264;26;20439;-61
2024/04/10 07:41:05;;;;;;;6.50;4.80;;;13.10;99.90;;;;;;5454658;26;20436;-61
2024/04/10 07:43:34;;;;;;;8.20;4.47;;;13.20;99.90;;;;;;5455272;26;20441;-61
2024/04/10 07:46:19;;;;;;;10.60;4.87;;;13.30;99.90;;;;;;5454561;26;20504;-61
2024/04/10 07:49:03;;;;;;;7.43;5.20;;;13.30;99.90;;;;;;5453904;26;20798;-61
2024/04/10 07:51:29;;;;;;;5.60;5.00;;;13.40;99.90;;;;;;5455162;26;20566;-61
2024/04/10 07:53:55;;;;;;;6.43;4.40;;;13.40;99.90;;;;;;5423113;26;20961;-61
2024/04/10 07:56:22;;;;;;;8.67;4.53;;;13.50;99.90;;;;;;5455406;26;20453;-62
2024/04/10 07:58:48;;;;;;;8.50;5.27;;;13.50;99.90;;;;;;5454034;26;20574;-61
2024/04/10 08:01:14;;;;;;;7.50;5.23;;;13.60;99.90;;;;;;5454714;26;20991;-61
2024/04/10 08:03:40;;;;;;;5.27;4.53;;;13.60;99.90;;;;;;5454724;26;20441;-61
2024/04/10 08:06:07;;;;;;;10.93;4.90;;;13.60;99.90;;;;;;5454160;26;20504;-61
2024/04/10 08:08:33;;;;;;;7.53;6.33;;;13.60;99.90;;;;;;5454759;26;20356;-61
2024/04/10 08:11:04;;;;;;;6.83;5.83;;;13.60;99.90;;;;;;5454315;26;20433;-61
2024/04/10 08:13:30;;;;;;;8.47;7.30;;;13.60;99.90;;;;;;5454949;26;20473;-62
2024/04/10 08:16:01;;;;;;;9.27;6.83;;;13.60;99.90;;;;;;5453780;26;20533;-61
2024/04/10 08:18:30;;;;;;;8.20;7.33;;;13.60;99.90;;;;;;5463493;26;20470;-61
2024/04/10 08:21:07;;;;;;;10.53;8.23;;;13.70;99.90;;;;;;5464739;26;20438;-61
2024/04/10 08:23:34;;;;;;;10.87;8.20;;;13.70;99.90;;;;;;5455066;26;20529;-61
2024/04/10 08:26:12;;;;;;;9.43;8.47;;;13.80;99.90;;;;;;5454165;26;20449;-61
2024/04/10 08:28:45;;;;;;;12.10;8.60;;;13.80;99.90;;;;;;5454920;26;20546;-61
2024/04/10 08:31:14;;;;;;;9.20;7.67;;;13.90;99.90;;;;;;5455096;26;20427;-61
2024/04/10 08:33:40;;;;;;;10.00;7.43;;;13.90;99.90;;;;;;5454955;26;20432;-61
2024/04/10 08:36:10;;;;;;;10.10;9.20;;;13.90;99.90;;;;;;5454018;26;20471;-61
2024/04/10 08:38:36;;;;;;;7.83;7.10;;;13.90;99.90;;;;;;5454514;26;20436;-61
2024/04/10 08:41:02;;;;;;;11.07;8.63;;;14.00;99.90;;;;;;5422598;26;20491;-61
2024/04/10 08:43:34;;;;;;;8.63;6.40;;;14.00;99.90;;;;;;5454619;26;20245;-61
2024/04/10 08:46:01;;;;;;;9.70;7.30;;;14.00;99.90;;;;;;5454318;26;20264;-61
2024/04/10 08:48:26;;;;;;;7.20;6.40;;;14.10;99.90;;;;;;5454572;26;20458;-61
2024/04/10 08:50:56;;;;;;;10.40;7.63;;;14.10;99.90;;;;;;5453056;26;20486;-61
2024/04/10 08:53:24;;;;;;;11.03;7.30;;;14.10;99.90;;;;;;5454691;26;20322;-61
2024/04/10 08:55:50;;;;;;;12.30;7.63;;;14.10;99.90;;;;;;5453789;26;20527;-61
2024/04/10 08:58:16;;;;;;;11.20;7.70;;;14.10;99.90;;;;;;5454320;26;20486;-61
2024/04/10 09:00:43;;;;;;;11.80;7.30;;;14.00;99.90;;;;;;5454326;26;20430;-60
2024/04/10 09:03:11;;;;;;;8.43;6.90;;;14.10;99.90;;;;;;5453798;26;20758;-61
2024/04/10 09:05:36;;;;;;;7.53;6.83;;;14.10;99.90;;;;;;5454198;26;20446;-61
2024/04/10 09:08:02;;;;;;;14.30;7.13;;;14.10;99.90;;;;;;5453668;26;20437;-60
2024/04/10 09:10:28;;;;;;;11.10;7.20;;;14.10;99.90;;;;;;5454289;26;20691;-60
2024/04/10 09:13:12;;;;;;;7.47;6.40;;;14.10;99.90;;;;;;5453586;26;20227;-60
2024/04/10 09:15:38;;;;;;;8.10;5.83;;;14.10;99.90;;;;;;5454149;26;20540;-60
2024/04/10 09:18:06;;;;;;;11.60;6.70;;;14.10;99.90;;;;;;5453212;26;20509;-61
2024/04/10 09:20:32;;;;;;;10.70;7.27;;;14.10;99.90;;;;;;5422906;26;20442;-61
2024/04/10 09:23:01;;;;;;;10.03;8.47;;;14.10;99.90;;;;;;5453459;26;20433;-61
2024/04/10 09:25:27;;;;;;;12.10;6.77;;;14.10;99.90;;;;;;5453889;26;20490;-60
2024/04/10 09:28:04;;;;;;;10.73;6.70;;;14.20;99.90;;;;;;5453375;26;20922;-61
2024/04/10 09:30:34;;;;;;;12.23;6.90;;;14.20;99.90;;;;;;5454124;26;20523;-61
2024/04/10 09:33:00;;;;;;;10.60;5.87;;;14.20;99.90;;;;;;5421817;26;20491;-60
2024/04/10 09:35:27;;;;;;;11.90;6.43;;;14.20;99.90;;;;;;5454211;26;20989;-60
2024/04/10 09:38:00;;;;;;;7.93;6.87;;;14.20;99.90;;;;;;5453212;26;20486;-61
2024/04/10 09:40:27;;;;;;;6.70;6.10;;;14.20;99.90;;;;;;5454025;26;20443;-60
2024/04/10 09:43:05;;;;;;;7.63;6.23;;;14.20;99.90;;;;;;5453237;26;20491;-61
2024/04/10 09:45:37;;;;;;;8.50;6.20;;;14.30;99.90;;;;;;5454017;26;20482;-60
2024/04/10 09:48:10;;;;;;;10.33;7.40;;;14.40;99.90;;;;;;5453249;26;20581;-61
2024/04/10 09:50:38;;;;;;;10.30;6.33;;;14.50;99.90;;;;;;5453966;26;20564;-61
2024/04/10 09:53:05;;;;;;;8.30;6.50;;;14.50;99.90;;;;;;5453163;26;20492;-61
2024/04/10 09:55:33;;;;;;;11.63;7.00;;;14.70;99.90;;;;;;5453750;26;20478;-61
2024/04/10 09:58:03;;;;;;;9.63;6.10;;;14.70;99.90;;;;;;5452900;26;20491;-61
2024/04/10 10:00:34;;;;;;;7.70;6.90;;;14.80;99.90;;;;;;5453645;26;20435;-63
2024/04/10 10:03:08;;;;;;;8.50;6.30;;;14.90;99.90;;;;;;5451334;26;20544;-61
2024/04/10 10:05:35;;;;;;;10.13;6.00;;;14.90;99.60;;;;;;5453577;26;20436;-61
2024/04/10 10:08:15;;;;;;;8.13;5.30;;;14.80;98.90;;;;;;5453147;26;20950;-61
2024/04/10 10:10:50;;;;;;;8.63;6.40;;;14.80;98.80;;;;;;5453935;26;20422;-61
2024/04/10 10:13:45;;;;;;;7.40;5.77;;;14.80;98.50;;;;;;5453230;26;20766;-61
2024/04/10 10:16:13;;;;;;;6.90;5.57;;;14.80;98.10;;;;;;5453070;26;20769;-61
2024/04/10 10:18:39;;;;;;;7.63;5.73;;;14.90;98.00;;;;;;5452925;26;20531;-61
2024/04/10 10:21:09;;;;;;;10.10;5.73;;;14.90;98.40;;;;;;5452592;26;20482;-61
2024/04/10 10:23:39;;;;;;;7.00;5.83;;;14.90;98.40;;;;;;5453259;26;20268;-60
2024/04/10 10:26:07;;;;;;;7.27;6.00;;;14.90;97.20;;;;;;5452523;26;20440;-61
2024/04/10 10:28:35;;;;;;;7.03;6.33;;;14.90;97.50;;;;;;5453279;26;20890;-61
2024/04/10 10:31:16;;;;;;;5.67;5.13;;;14.90;96.90;;;;;;5452601;26;20435;-61
2024/04/10 10:33:43;;;;;;;7.43;5.37;;;14.90;96.30;;;;;;5453196;26;20470;-60
2024/04/10 10:36:09;;;;;;;7.93;5.40;;;14.90;97.40;;;;;;5452467;26;20554;-61
2024/04/10 10:38:35;;;;;;;7.93;5.43;;;14.90;97.10;;;;;;5453086;26;20431;-61
2024/04/10 10:41:11;;;;;;;8.53;6.10;;;14.90;96.90;;;;;;5420717;26;20439;-61
2024/04/10 10:43:39;;;;;;;7.50;5.20;;;15.00;98.40;;;;;;5452840;26;20257;-61
2024/04/10 10:46:05;;;;;;;5.30;4.60;;;15.10;98.80;;;;;;5451974;26;20442;-63
2024/04/10 10:48:31;;;;;;;9.70;5.60;;;15.10;97.10;;;;;;5421180;26;20459;-63
2024/04/10 10:50:58;;;;;;;5.97;4.37;;;15.20;97.50;;;;;;5420579;26;20582;-63
2024/04/10 10:53:25;;;;;;;7.73;4.90;;;15.30;96.80;;;;;;5452895;26;20483;-63
2024/04/10 10:55:51;;;;;;;5.10;4.67;;;15.30;96.90;;;;;;5452873;26;20439;-63
2024/04/10 10:58:17;;;;;;;5.83;5.40;;;15.30;96.60;;;;;;5451972;26;20488;-63
2024/04/10 11:00:43;;;;;;;7.80;5.27;;;15.30;97.20;;;;;;5420442;26;20947;-63
2024/04/10 11:03:16;;;;;;;6.47;5.87;;;15.30;96.30;;;;;;5451994;26;20222;-63
2024/04/10 11:05:43;;;;;;;7.50;5.93;;;15.30;95.70;;;;;;5452559;26;20483;-63
2024/04/10 11:08:09;;;;;;;5.00;4.60;;;15.30;96.10;;;;;;5451857;26;20443;-63
2024/04/10 11:10:35;;;;;;;6.67;4.40;;;15.40;96.30;;;;;;5452624;26;20427;-63
2024/04/10 11:13:04;;;;;;;4.50;4.10;;;15.40;94.80;;;;;;5451951;26;20330;-63
2024/04/10 11:15:43;;;;;;;5.00;4.60;;;15.60;94.70;;;;;;5451880;26;20289;-63
2024/04/10 11:18:12;;;;;;;5.03;4.53;;;15.70;95.50;;;;;;5424760;26;20435;-63
2024/04/10 11:20:37;;;;;;;5.70;3.90;;;15.90;95.20;;;;;;5488743;26;20506;-63
2024/04/10 11:23:05;;;;;;;5.47;3.83;;;16.00;94.10;;;;;;5456171;26;20434;-63
2024/04/10 11:25:31;;;;;;;5.00;4.30;;;16.00;92.60;;;;;;5488821;26;20324;-63
2024/04/10 11:27:58;;;;;;;4.00;3.70;;;16.10;93.10;;;;;;5488178;26;20953;-67
2024/04/10 11:30:27;;;;;;;6.23;4.27;;;16.10;92.50;;;;;;5488832;26;20505;-63
2024/04/10 11:32:54;;;;;;;4.17;3.77;;;16.10;91.20;;;;;;5488715;26;20778;-63
2024/04/10 11:35:20;;;;;;;4.67;4.27;;;16.10;91.20;;;;;;5487847;26;20496;-63
2024/04/10 11:37:54;;;;;;;4.40;3.30;;;16.00;91.20;;;;;;5456422;26;20774;-63
2024/04/10 11:40:22;;;;;;;5.70;4.23;;;16.00;91.50;;;;;;5487722;26;20550;-63
2024/04/10 11:42:51;;;;;;;4.93;4.10;;;16.00;92.10;;;;;;5488478;26;20502;-63
2024/04/10 11:45:18;;;;;;;4.10;3.70;;;16.00;92.10;;;;;;5487802;26;20551;-63
2024/04/10 11:47:45;;;;;;;5.50;4.23;;;16.00;92.70;;;;;;5488250;26;20430;-63
2024/04/10 11:50:12;;;;;;;4.30;3.90;;;16.00;92.80;;;;;;5487628;26;20426;-63
2024/04/10 11:52:38;;;;;;;4.47;4.10;;;15.90;92.70;;;;;;5456187;26;20442;-63
2024/04/10 11:55:05;;;;;;;5.10;3.60;;;15.80;92.90;;;;;;5487554;26;20547;-63
2024/04/10 11:57:32;;;;;;;4.70;3.60;;;15.80;94.00;;;;;;5488109;26;20519;-63
2024/04/10 11:59:58;;;;;;;4.20;3.70;;;15.70;93.90;;;;;;5488009;26;20426;-63
2024/04/10 12:02:24;;;;;;;3.80;3.50;;;15.70;92.90;;;;;;5455983;26;20445;-63
2024/04/10 12:04:52;;;;;;;4.57;3.50;;;15.70;93.40;;;;;;5487994;26;20430;-63
2024/04/10 12:07:18;;;;;;;5.80;3.67;;;15.70;93.60;;;;;;5487189;26;20839;-63
2024/04/10 12:09:47;;;;;;;11.43;3.03;;;15.80;92.50;;;;;;5487935;26;20478;-63
2024/04/10 12:12:15;;;;;;;3.60;3.30;;;15.90;92.80;;;;;;5455298;26;20469;-63
2024/04/10 12:14:44;;;;;;;4.07;3.77;;;16.00;92.50;;;;;;5487883;26;20438;-63
2024/04/10 12:17:10;;;;;;;3.93;3.30;;;16.20;93.30;;;;;;5454826;26;20516;-63
2024/04/10 12:19:36;;;;;;;4.20;3.70;;;16.50;91.90;;;;;;5455745;26;20514;-63
2024/04/10 12:22:02;;;;;;;5.20;3.87;;;16.80;91.60;;;;;;5487377;26;20438;-64
2024/04/10 12:24:28;;;;;;;5.67;3.57;;;17.10;91.60;;;;;;5487985;26;20486;-63
2024/04/10 12:26:56;;;;;;;5.23;3.57;;;17.20;87.10;;;;;;5457650;26;20225;-63
2024/04/10 12:29:22;;;;;;;3.93;3.63;;;17.20;88.30;;;;;;5489868;26;20599;-63
2024/04/10 12:31:49;;;;;;;5.23;3.63;;;17.30;88.00;;;;;;5459013;26;20441;-63
2024/04/10 12:34:15;;;;;;;4.30;3.90;;;17.30;86.40;;;;;;5491025;26;20434;-63
2024/04/10 12:39:26;;;;;;;4.77;3.73;;;17.20;84.90;;;;;;5490157;26;20486;-63
2024/04/10 12:41:52;;;;;;;4.53;3.73;;;17.10;85.10;;;;;;5491378;26;20438;-63
2024/04/10 12:44:21;;;;;;;4.17;3.77;;;17.00;87.90;;;;;;5490753;26;20252;-63
2024/04/10 12:46:50;;;;;;;3.33;3.10;;;17.10;87.60;;;;;;5491283;26;20845;-63
2024/04/10 12:49:16;;;;;;;4.43;2.67;;;17.20;86.10;;;;;;5490840;26;20829;-63
2024/04/10 12:51:42;;;;;;;5.27;3.30;;;17.40;84.00;;;;;;5491776;26;20491;-64